createdAt,value
2019-05-15T00:00:39.339Z,18.20
2019-05-15T00:01:14.036Z,24.25
2019-05-15T00:01:48.981Z,22.07
2019-05-15T00:02:23.843Z,13.13
2019-05-15T00:02:58.939Z,17.00
2019-05-15T00:03:33.701Z,16.52
2019-05-15T00:04:09.270Z,17.05
2019-05-15T00:04:44.358Z,18.95
2019-05-15T00:05:19.024Z,16.25
2019-05-15T00:05:53.565Z,14.45
2019-05-15T00:06:28.794Z,14.83
2019-05-15T00:07:03.532Z,14.00
2019-05-15T00:07:39.079Z,17.48
2019-05-15T00:08:14.244Z,13.80
2019-05-15T00:08:52.095Z,17.40
2019-05-15T00:09:28.623Z,12.63
2019-05-15T00:10:02.916Z,9.83
2019-05-15T00:10:39.004Z,9.13
2019-05-15T00:11:14.053Z,12.35
2019-05-15T00:11:48.990Z,11.55
2019-05-15T00:12:23.508Z,10.40
2019-05-15T00:12:58.161Z,11.18
2019-05-15T00:13:33.057Z,11.63
2019-05-15T00:14:08.707Z,21.00
2019-05-15T00:14:42.970Z,15.60
2019-05-15T00:15:18.197Z,13.15
2019-05-15T00:15:53.159Z,17.35
2019-05-15T00:16:29.034Z,17.42
2019-05-15T00:17:03.965Z,11.20
2019-05-15T00:17:39.663Z,11.73
2019-05-15T00:18:14.210Z,10.00
2019-05-15T00:18:49.030Z,13.88
2019-05-15T00:19:23.376Z,12.58
2019-05-15T00:19:58.273Z,11.15
2019-05-15T00:20:33.000Z,12.93
2019-05-15T00:21:09.185Z,13.62
2019-05-15T00:21:43.821Z,13.28
2019-05-15T00:22:18.550Z,13.20
2019-05-15T00:22:53.594Z,14.30
2019-05-15T00:23:29.129Z,17.32
2019-05-15T00:24:04.132Z,18.40
2019-05-15T00:24:38.936Z,12.43
2019-05-15T00:25:13.884Z,12.90
2019-05-15T00:25:48.929Z,16.57
2019-05-15T00:26:23.528Z,13.88
2019-05-15T00:26:58.858Z,13.38
2019-05-15T00:27:33.855Z,13.05
2019-05-15T00:28:09.535Z,11.75
2019-05-15T00:28:44.244Z,11.45
2019-05-15T00:29:19.874Z,12.63
2019-05-15T00:29:54.887Z,12.28
2019-05-15T00:30:29.490Z,13.88
2019-05-15T00:31:03.761Z,15.32
2019-05-15T00:31:38.900Z,13.05
2019-05-15T00:32:13.694Z,13.38
2019-05-15T00:32:48.836Z,13.35
2019-05-15T00:33:23.164Z,13.95
2019-05-15T00:33:58.901Z,10.82
2019-05-15T00:34:34.193Z,10.25
2019-05-15T00:35:10.247Z,11.50
2019-05-15T00:35:44.329Z,11.50
2019-05-15T00:36:19.294Z,10.48
2019-05-15T00:36:54.157Z,12.93
2019-05-15T00:37:28.998Z,16.73
2019-05-15T00:38:03.509Z,12.40
2019-05-15T00:38:39.001Z,12.18
2019-05-15T00:39:14.042Z,11.93
2019-05-15T00:39:48.844Z,13.05
2019-05-15T00:40:23.333Z,10.72
2019-05-15T00:40:58.456Z,13.05
2019-05-15T00:41:47.579Z,14.90
2019-05-15T00:42:10.088Z,14.25
2019-05-15T00:42:44.419Z,14.53
2019-05-15T00:43:19.020Z,16.50
2019-05-15T00:43:53.697Z,24.32
2019-05-15T00:44:28.431Z,13.68
2019-05-15T00:45:02.908Z,12.82
2019-05-15T00:45:38.510Z,14.20
2019-05-15T00:46:13.575Z,12.58
2019-05-15T00:46:48.784Z,9.18
2019-05-15T00:47:23.408Z,9.43
2019-05-15T00:47:58.097Z,10.95
2019-05-15T00:48:32.743Z,13.85
2019-05-15T00:49:08.651Z,15.28
2019-05-15T00:49:43.011Z,12.23
2019-05-15T00:50:18.347Z,10.95
2019-05-15T00:50:53.159Z,12.43
2019-05-15T00:51:28.481Z,13.32
2019-05-15T00:52:03.274Z,15.10
2019-05-15T00:52:39.144Z,12.78
2019-05-15T00:53:14.091Z,10.15
2019-05-15T00:53:48.876Z,13.03
2019-05-15T00:54:23.362Z,18.02
2019-05-15T00:54:58.951Z,16.37
2019-05-15T00:55:33.784Z,14.25
2019-05-15T00:56:09.031Z,12.80
2019-05-15T00:56:43.534Z,14.65
2019-05-15T00:57:19.233Z,17.02
2019-05-15T00:57:54.064Z,12.58
2019-05-15T00:58:28.805Z,14.35
2019-05-15T00:59:03.286Z,10.90
2019-05-15T00:59:39.015Z,11.53
2019-05-15T01:00:14.161Z,9.05
2019-05-15T01:00:49.087Z,13.45
2019-05-15T01:01:23.517Z,11.12
2019-05-15T01:01:59.422Z,10.28
2019-05-15T01:02:34.489Z,12.07
2019-05-15T01:03:09.257Z,12.95
2019-05-15T01:03:43.697Z,12.47
2019-05-15T01:04:18.852Z,14.18
2019-05-15T01:04:53.735Z,12.60
2019-05-15T01:05:28.428Z,12.13
2019-05-15T01:06:02.800Z,14.23
2019-05-15T01:06:38.894Z,12.00
2019-05-15T01:07:13.931Z,14.93
2019-05-15T01:07:48.843Z,15.08
2019-05-15T01:08:23.437Z,16.12
2019-05-15T01:08:58.853Z,14.78
2019-05-15T01:09:33.976Z,12.07
2019-05-15T01:10:10.477Z,17.12
2019-05-15T01:10:44.970Z,15.00
2019-05-15T01:11:19.922Z,13.43
2019-05-15T01:11:54.810Z,19.57
2019-05-15T01:12:29.384Z,15.43
2019-05-15T01:13:03.880Z,11.60
2019-05-15T01:13:39.054Z,15.30
2019-05-15T01:14:13.879Z,19.65
2019-05-15T01:14:49.078Z,14.13
2019-05-15T01:15:23.695Z,15.98
2019-05-15T01:15:58.409Z,26.73
2019-05-15T01:16:33.403Z,15.88
2019-05-15T01:17:09.032Z,19.00
2019-05-15T01:17:43.485Z,15.35
2019-05-15T01:18:18.846Z,13.62
2019-05-15T01:18:53.677Z,27.10
2019-05-15T01:19:28.744Z,25.50
2019-05-15T01:20:03.280Z,19.82
2019-05-15T01:20:39.034Z,16.10
2019-05-15T01:21:14.125Z,16.17
2019-05-15T01:21:49.125Z,18.82
2019-05-15T01:22:28.576Z,20.27
2019-05-15T01:23:02.938Z,23.20
2019-05-15T01:23:39.016Z,18.55
2019-05-15T01:24:14.346Z,17.02
2019-05-15T01:24:48.715Z,18.85
2019-05-15T01:25:23.627Z,18.02
2019-05-15T01:25:58.881Z,23.38
2019-05-15T01:26:33.570Z,26.87
2019-05-15T01:27:11.304Z,22.40
2019-05-15T01:27:46.000Z,18.42
2019-05-15T01:28:20.651Z,14.93
2019-05-15T01:28:55.719Z,23.87
2019-05-15T01:29:41.070Z,20.12
2019-05-15T01:30:08.983Z,21.17
2019-05-15T01:30:43.438Z,17.10
2019-05-15T01:31:19.070Z,21.10
2019-05-15T01:31:53.335Z,22.95
2019-05-15T01:32:28.510Z,23.42
2019-05-15T01:33:03.698Z,30.27
2019-05-15T01:33:38.997Z,37.98
2019-05-15T01:34:14.027Z,29.35
2019-05-15T01:34:49.275Z,23.45
2019-05-15T01:35:24.254Z,25.55
2019-05-15T01:35:59.125Z,23.15
2019-05-15T01:36:33.589Z,26.60
2019-05-15T01:37:08.637Z,24.50
2019-05-15T01:37:43.690Z,25.15
2019-05-15T01:38:18.847Z,29.67
2019-05-15T01:38:53.246Z,25.88
2019-05-15T01:39:29.056Z,22.70
2019-05-15T01:40:04.113Z,21.57
2019-05-15T01:40:38.908Z,21.17
2019-05-15T01:41:13.467Z,24.23
2019-05-15T01:41:49.639Z,21.97
2019-05-15T01:42:24.425Z,28.00
2019-05-15T01:42:59.520Z,24.50
2019-05-15T01:43:34.052Z,26.40
2019-05-15T01:44:08.976Z,62.45
2019-05-15T01:44:44.094Z,61.73
2019-05-15T01:45:19.208Z,31.85
2019-05-15T01:45:53.598Z,32.93
2019-05-15T01:46:28.720Z,26.25
2019-05-15T01:47:03.602Z,31.52
2019-05-15T01:47:38.870Z,30.35
2019-05-15T01:48:13.684Z,40.52
2019-05-15T01:48:49.381Z,37.28
2019-05-15T01:49:24.168Z,24.10
2019-05-15T01:49:59.056Z,32.00
2019-05-15T01:50:33.572Z,31.23
2019-05-15T01:51:09.333Z,33.02
2019-05-15T01:51:44.219Z,20.30
2019-05-15T01:52:19.366Z,30.00
2019-05-15T01:52:53.644Z,31.97
2019-05-15T01:53:29.039Z,27.80
2019-05-15T01:54:04.010Z,31.33
2019-05-15T01:54:38.601Z,34.00
2019-05-15T01:55:13.366Z,28.05
2019-05-15T01:55:48.490Z,25.27
2019-05-15T01:56:23.182Z,24.55
2019-05-15T01:56:58.792Z,31.97
2019-05-15T01:57:33.537Z,24.07
2019-05-15T01:58:09.125Z,33.70
2019-05-15T01:58:44.465Z,28.02
2019-05-15T01:59:19.256Z,34.03
2019-05-15T01:59:57.360Z,30.52
2019-05-15T02:00:30.306Z,40.12
2019-05-15T02:01:05.015Z,54.40
2019-05-15T02:01:39.564Z,22.07
2019-05-15T02:02:13.972Z,24.82
2019-05-15T02:02:49.184Z,29.98
2019-05-15T02:03:23.865Z,25.75
2019-05-15T02:03:58.984Z,36.85
2019-05-15T02:04:33.524Z,37.90
2019-05-15T02:05:09.204Z,30.62
2019-05-15T02:05:43.891Z,31.45
2019-05-15T02:06:20.390Z,27.45
2019-05-15T02:06:54.655Z,21.52
2019-05-15T02:07:29.367Z,17.12
2019-05-15T02:08:04.210Z,20.00
2019-05-15T02:08:39.469Z,23.62
2019-05-15T02:09:14.194Z,22.20
2019-05-15T02:09:49.395Z,28.15
2019-05-15T02:10:24.088Z,26.73
2019-05-15T02:10:59.085Z,21.25
2019-05-15T02:11:33.555Z,28.25
2019-05-15T02:12:08.792Z,26.60
2019-05-15T02:12:43.812Z,23.15
2019-05-15T02:13:18.825Z,23.18
2019-05-15T02:13:53.070Z,23.12
2019-05-15T02:14:28.516Z,25.12
2019-05-15T02:15:03.737Z,21.27
2019-05-15T02:15:39.684Z,28.77
2019-05-15T02:16:14.191Z,26.97
2019-05-15T02:16:49.185Z,21.35
2019-05-15T02:17:23.695Z,31.90
2019-05-15T02:17:58.894Z,35.25
2019-05-15T02:18:33.470Z,22.75
2019-05-15T02:19:08.993Z,24.75
2019-05-15T02:19:43.967Z,36.35
2019-05-15T02:20:19.044Z,21.68
2019-05-15T02:20:53.420Z,17.98
2019-05-15T02:21:29.028Z,19.35
2019-05-15T02:22:03.991Z,17.92
2019-05-15T02:22:42.479Z,20.00
2019-05-15T02:23:14.797Z,20.90
2019-05-15T02:23:49.644Z,22.07
2019-05-15T02:24:24.205Z,16.65
2019-05-15T02:24:59.554Z,20.77
2019-05-15T02:25:33.985Z,21.20
2019-05-15T02:26:08.634Z,21.30
2019-05-15T02:26:43.559Z,19.48
2019-05-15T02:27:18.878Z,21.10
2019-05-15T02:27:53.258Z,18.40
2019-05-15T02:28:28.935Z,24.75
2019-05-15T02:29:04.112Z,26.82
2019-05-15T02:29:38.724Z,22.93
2019-05-15T02:30:24.309Z,21.02
2019-05-15T02:30:50.769Z,21.55
2019-05-15T02:31:25.461Z,17.82
2019-05-15T02:32:00.242Z,21.93
2019-05-15T02:32:34.675Z,19.87
2019-05-15T02:33:10.509Z,19.73
2019-05-15T02:33:45.932Z,21.25
2019-05-15T02:34:20.739Z,19.32
2019-05-15T02:34:54.992Z,20.72
2019-05-15T02:35:29.869Z,22.37
2019-05-15T02:36:04.507Z,17.87
2019-05-15T02:36:39.997Z,18.12
2019-05-15T02:37:14.919Z,21.50
2019-05-15T02:37:49.709Z,18.65
2019-05-15T02:38:24.454Z,17.20
2019-05-15T02:38:59.795Z,20.00
2019-05-15T02:39:34.298Z,25.02
2019-05-15T02:40:10.368Z,21.57
2019-05-15T02:40:45.673Z,19.07
2019-05-15T02:41:20.672Z,20.82
2019-05-15T02:41:55.191Z,20.95
2019-05-15T02:42:29.990Z,19.00
2019-05-15T02:43:04.620Z,24.27
2019-05-15T02:43:39.530Z,21.55
2019-05-15T02:44:14.042Z,23.65
2019-05-15T02:44:49.992Z,25.25
2019-05-15T02:45:24.760Z,27.17
2019-05-15T02:46:00.460Z,19.37
2019-05-15T02:46:35.211Z,25.80
2019-05-15T02:47:09.729Z,18.75
2019-05-15T02:47:44.591Z,20.55
2019-05-15T02:48:20.057Z,18.57
2019-05-15T02:48:54.633Z,20.68
2019-05-15T02:49:30.296Z,17.42
2019-05-15T02:50:06.247Z,17.75
2019-05-15T02:50:40.910Z,21.00
2019-05-15T02:51:15.424Z,19.92
2019-05-15T02:51:50.326Z,20.05
2019-05-15T02:52:24.941Z,17.73
2019-05-15T02:53:00.679Z,24.90
2019-05-15T02:53:35.552Z,26.65
2019-05-15T02:54:10.591Z,16.48
2019-05-15T02:54:45.679Z,26.68
2019-05-15T02:55:20.671Z,18.57
2019-05-15T02:55:54.787Z,16.45
2019-05-15T02:56:29.707Z,17.27
2019-05-15T02:57:04.509Z,18.23
2019-05-15T02:57:39.746Z,19.00
2019-05-15T02:58:14.335Z,31.42
2019-05-15T02:58:49.385Z,23.10
2019-05-15T02:59:24.099Z,15.63
2019-05-15T02:59:59.447Z,18.32
2019-05-15T03:00:44.195Z,17.35
2019-05-15T03:01:10.779Z,18.48
2019-05-15T03:01:49.098Z,21.93
2019-05-15T03:02:22.097Z,16.40
2019-05-15T03:02:59.917Z,22.52
2019-05-15T03:03:33.358Z,18.37
2019-05-15T03:04:09.266Z,17.12
2019-05-15T03:04:44.293Z,20.45
2019-05-15T03:05:19.597Z,33.90
2019-05-15T03:05:54.527Z,23.10
2019-05-15T03:06:30.024Z,25.43
2019-05-15T03:07:05.185Z,23.18
2019-05-15T03:07:40.660Z,28.17
2019-05-15T03:08:19.298Z,19.23
2019-05-15T03:08:52.302Z,19.07
2019-05-15T03:09:29.760Z,20.12
2019-05-15T03:10:03.268Z,20.55
2019-05-15T03:10:40.470Z,20.10
2019-05-15T03:11:15.388Z,20.52
2019-05-15T03:11:50.860Z,36.17
2019-05-15T03:12:25.291Z,20.05
2019-05-15T03:13:00.478Z,21.37
2019-05-15T03:13:35.363Z,23.10
2019-05-15T03:14:10.266Z,19.85
2019-05-15T03:14:44.936Z,40.55
2019-05-15T03:15:20.269Z,24.77
2019-05-15T03:15:55.434Z,20.40
2019-05-15T03:16:30.636Z,17.92
2019-05-15T03:17:05.140Z,16.55
2019-05-15T03:17:41.043Z,20.30
2019-05-15T03:18:19.160Z,19.45
2019-05-15T03:18:55.792Z,26.10
2019-05-15T03:19:30.103Z,27.52
2019-05-15T03:20:09.917Z,26.25
2019-05-15T03:20:42.867Z,23.05
2019-05-15T03:21:18.795Z,22.20
2019-05-15T03:21:53.613Z,25.75
2019-05-15T03:22:29.369Z,29.25
2019-05-15T03:23:04.807Z,38.40
2019-05-15T03:23:40.705Z,30.75
2019-05-15T03:24:14.896Z,34.50
2019-05-15T03:24:50.539Z,34.20
2019-05-15T03:25:25.481Z,27.52
2019-05-15T03:26:04.104Z,24.05
2019-05-15T03:26:39.221Z,24.07
2019-05-15T03:27:13.150Z,25.92
2019-05-15T03:27:49.882Z,25.20
2019-05-15T03:28:24.409Z,29.48
2019-05-15T03:28:59.163Z,21.35
2019-05-15T03:29:34.090Z,29.37
2019-05-15T03:30:13.689Z,25.12
2019-05-15T03:31:40.159Z,25.48
2019-05-15T03:32:15.465Z,32.75
2019-05-15T03:32:43.384Z,22.40
2019-05-15T03:33:18.630Z,21.93
2019-05-15T03:33:52.745Z,16.85
2019-05-15T03:34:35.262Z,17.98
2019-05-15T03:35:04.632Z,16.10
2019-05-15T03:35:41.871Z,13.83
2019-05-15T03:36:14.145Z,16.32
2019-05-15T03:36:53.006Z,17.17
2019-05-15T03:37:25.938Z,16.52
2019-05-15T03:38:00.677Z,14.25
2019-05-15T03:38:34.965Z,12.45
2019-05-15T03:39:09.862Z,13.08
2019-05-15T03:39:48.439Z,12.93
2019-05-15T03:40:21.178Z,10.43
2019-05-15T03:40:55.485Z,12.13
2019-05-15T03:41:30.289Z,12.75
2019-05-15T03:42:04.891Z,10.82
2019-05-15T03:42:40.014Z,12.58
2019-05-15T03:43:14.501Z,12.03
2019-05-15T03:43:49.786Z,12.07
2019-05-15T03:44:25.023Z,10.63
2019-05-15T03:44:59.871Z,8.90
2019-05-15T03:45:34.205Z,13.25
2019-05-15T03:46:09.381Z,24.50
2019-05-15T03:46:44.680Z,10.23
2019-05-15T03:47:19.684Z,11.05
2019-05-15T03:47:54.108Z,9.65
2019-05-15T03:48:29.097Z,10.65
2019-05-15T03:49:03.987Z,14.23
2019-05-15T03:49:39.667Z,11.53
2019-05-15T03:50:14.717Z,12.82
2019-05-15T03:50:49.569Z,8.98
2019-05-15T03:51:24.193Z,8.98
2019-05-15T03:51:59.327Z,11.83
2019-05-15T03:52:33.648Z,9.75
2019-05-15T03:53:10.226Z,9.83
2019-05-15T03:53:45.417Z,9.78
2019-05-15T03:54:20.063Z,11.20
2019-05-15T03:54:54.699Z,6.67
2019-05-15T03:55:29.780Z,6.87
2019-05-15T03:56:04.689Z,7.60
2019-05-15T03:56:39.731Z,7.30
2019-05-15T03:57:14.359Z,8.68
2019-05-15T03:57:49.897Z,7.47
2019-05-15T03:58:25.067Z,8.28
2019-05-15T03:59:00.234Z,8.13
2019-05-15T03:59:34.935Z,5.87
2019-05-15T04:00:10.416Z,7.60
2019-05-15T04:00:45.276Z,10.75
2019-05-15T04:01:29.951Z,7.65
2019-05-15T04:01:59.707Z,9.80
2019-05-15T04:02:33.105Z,9.95
2019-05-15T04:03:10.980Z,13.98
2019-05-15T04:03:44.236Z,10.10
2019-05-15T04:04:19.175Z,13.10
2019-05-15T04:04:57.207Z,8.70
2019-05-15T04:05:30.689Z,8.33
2019-05-15T04:06:09.696Z,9.60
2019-05-15T04:06:42.408Z,7.75
2019-05-15T04:07:18.767Z,7.65
2019-05-15T04:07:53.964Z,9.53
2019-05-15T04:08:29.954Z,10.53
2019-05-15T04:09:09.325Z,10.65
2019-05-15T04:09:43.351Z,10.10
2019-05-15T04:10:19.996Z,10.53
2019-05-15T04:10:54.973Z,10.40
2019-05-15T04:11:29.878Z,10.28
2019-05-15T04:12:04.660Z,9.90
2019-05-15T04:12:40.672Z,7.97
2019-05-15T04:13:19.220Z,9.80
2019-05-15T04:13:51.783Z,12.03
2019-05-15T04:14:29.352Z,10.63
2019-05-15T04:15:03.213Z,9.33
2019-05-15T04:15:39.454Z,9.78
2019-05-15T04:16:14.193Z,12.20
2019-05-15T04:16:49.798Z,10.00
2019-05-15T04:17:29.287Z,9.90
2019-05-15T04:18:02.905Z,8.85
2019-05-15T04:18:39.603Z,9.65
2019-05-15T04:19:13.789Z,9.93
2019-05-15T04:19:49.705Z,10.10
2019-05-15T04:20:24.785Z,10.48
2019-05-15T04:21:00.168Z,8.28
2019-05-15T04:21:35.486Z,10.85
2019-05-15T04:22:10.514Z,9.58
2019-05-15T04:22:45.103Z,9.98
2019-05-15T04:23:24.197Z,9.68
2019-05-15T04:23:59.673Z,7.90
2019-05-15T04:24:34.979Z,8.95
2019-05-15T04:25:10.738Z,9.20
2019-05-15T04:25:49.420Z,9.85
2019-05-15T04:26:28.708Z,8.58
2019-05-15T04:27:09.603Z,8.28
2019-05-15T04:27:44.212Z,9.13
2019-05-15T04:28:21.716Z,9.60
2019-05-15T04:29:00.074Z,10.88
2019-05-15T04:29:34.395Z,10.98
2019-05-15T04:30:10.579Z,13.03
2019-05-15T04:30:45.197Z,12.07
2019-05-15T04:31:19.946Z,13.15
2019-05-15T04:32:01.067Z,13.40
2019-05-15T04:32:31.422Z,13.38
2019-05-15T04:33:09.077Z,13.60
2019-05-15T04:33:42.513Z,8.38
2019-05-15T04:34:19.512Z,9.50
2019-05-15T04:34:53.560Z,9.28
2019-05-15T04:35:28.979Z,7.00
2019-05-15T04:36:03.955Z,7.75
2019-05-15T04:36:40.490Z,9.25
2019-05-15T04:37:15.250Z,9.85
2019-05-15T04:37:49.851Z,8.65
2019-05-15T04:38:24.660Z,10.50
2019-05-15T04:38:59.296Z,8.28
2019-05-15T04:39:33.963Z,10.70
2019-05-15T04:40:09.730Z,9.63
2019-05-15T04:40:44.539Z,7.53
2019-05-15T04:41:20.009Z,7.90
2019-05-15T04:41:55.070Z,9.00
2019-05-15T04:42:30.060Z,10.32
2019-05-15T04:43:05.099Z,15.15
2019-05-15T04:43:45.182Z,12.00
2019-05-15T04:44:19.319Z,10.13
2019-05-15T04:44:52.828Z,8.13
2019-05-15T04:45:34.471Z,10.13
2019-05-15T04:46:04.317Z,9.48
2019-05-15T04:46:39.545Z,8.83
2019-05-15T04:47:14.146Z,10.82
2019-05-15T04:47:49.818Z,9.23
2019-05-15T04:48:25.088Z,8.93
2019-05-15T04:49:00.050Z,10.10
2019-05-15T04:49:34.426Z,9.83
2019-05-15T04:50:09.672Z,9.18
2019-05-15T04:50:44.583Z,10.80
2019-05-15T04:51:19.578Z,9.75
2019-05-15T04:51:54.130Z,9.70
2019-05-15T04:52:30.484Z,13.65
2019-05-15T04:53:05.612Z,11.78
2019-05-15T04:53:40.411Z,17.48
2019-05-15T04:54:14.946Z,17.00
2019-05-15T04:54:49.758Z,16.23
2019-05-15T04:55:24.967Z,13.95
2019-05-15T04:56:00.040Z,12.35
2019-05-15T04:56:34.254Z,10.95
2019-05-15T04:57:09.439Z,8.93
2019-05-15T04:57:44.742Z,11.70
2019-05-15T04:58:20.856Z,10.15
2019-05-15T04:58:59.705Z,11.45
2019-05-15T04:59:32.403Z,9.45
2019-05-15T05:00:09.565Z,9.48
2019-05-15T05:00:52.844Z,10.15
2019-05-15T05:01:28.865Z,10.68
2019-05-15T05:02:16.282Z,9.45
2019-05-15T05:02:40.859Z,9.38
2019-05-15T05:03:19.334Z,11.88
2019-05-15T05:03:52.343Z,12.37
2019-05-15T05:04:29.537Z,12.37
2019-05-15T05:05:03.927Z,11.50
2019-05-15T05:05:38.991Z,13.10
2019-05-15T05:06:13.897Z,10.75
2019-05-15T05:06:49.566Z,11.93
2019-05-15T05:07:24.883Z,9.20
2019-05-15T05:08:00.607Z,10.43
2019-05-15T05:08:35.493Z,14.53
2019-05-15T05:09:10.270Z,14.13
2019-05-15T05:09:45.164Z,10.98
2019-05-15T05:10:20.367Z,14.45
2019-05-15T05:10:55.026Z,16.50
2019-05-15T05:11:30.273Z,14.93
2019-05-15T05:12:05.242Z,14.58
2019-05-15T05:12:41.823Z,15.25
2019-05-15T05:13:19.424Z,9.73
2019-05-15T05:13:53.133Z,13.80
2019-05-15T05:14:28.525Z,10.72
2019-05-15T05:15:03.481Z,11.30
2019-05-15T05:15:38.922Z,12.93
2019-05-15T05:16:14.045Z,11.83
2019-05-15T05:16:49.141Z,11.53
2019-05-15T05:17:24.226Z,14.87
2019-05-15T05:17:58.670Z,12.93
2019-05-15T05:18:33.467Z,13.90
2019-05-15T05:19:09.101Z,15.50
2019-05-15T05:19:44.063Z,14.93
2019-05-15T05:20:18.785Z,16.50
2019-05-15T05:20:53.663Z,19.35
2019-05-15T05:21:28.468Z,13.62
2019-05-15T05:22:03.190Z,16.67
2019-05-15T05:22:39.419Z,15.63
2019-05-15T05:23:14.577Z,16.87
2019-05-15T05:23:49.496Z,18.92
2019-05-15T05:24:24.558Z,15.45
2019-05-15T05:24:58.888Z,20.97
2019-05-15T05:25:33.706Z,17.73
2019-05-15T05:26:11.104Z,16.37
2019-05-15T05:26:45.254Z,16.35
2019-05-15T05:27:19.705Z,25.35
2019-05-15T05:27:54.666Z,17.65
2019-05-15T05:28:29.471Z,21.60
2019-05-15T05:29:05.464Z,20.48
2019-05-15T05:29:40.130Z,16.95
2019-05-15T05:30:15.161Z,17.65
2019-05-15T05:30:50.378Z,22.05
2019-05-15T05:31:25.295Z,14.98
2019-05-15T05:32:00.141Z,22.15
2019-05-15T05:32:35.498Z,20.32
2019-05-15T05:33:11.369Z,22.73
2019-05-15T05:33:48.521Z,23.95
2019-05-15T05:34:23.016Z,19.65
2019-05-15T05:34:58.921Z,19.92
2019-05-15T05:35:33.775Z,19.00
2019-05-15T05:36:08.959Z,18.32
2019-05-15T05:36:43.842Z,21.25
2019-05-15T05:37:18.709Z,20.68
2019-05-15T05:37:53.418Z,23.25
2019-05-15T05:38:28.377Z,23.02
2019-05-15T05:39:03.329Z,18.92
2019-05-15T05:39:39.521Z,22.00
2019-05-15T05:40:15.004Z,24.32
2019-05-15T05:40:50.244Z,23.70
2019-05-15T05:41:24.789Z,28.07
2019-05-15T05:41:59.774Z,30.48
2019-05-15T05:42:34.805Z,21.10
2019-05-15T05:43:09.832Z,23.83
2019-05-15T05:43:44.732Z,23.95
2019-05-15T05:44:19.954Z,23.87
2019-05-15T05:44:54.917Z,20.05
2019-05-15T05:45:30.002Z,31.70
2019-05-15T05:46:04.524Z,29.63
2019-05-15T05:46:39.881Z,21.68
2019-05-15T05:47:14.889Z,20.17
2019-05-15T05:47:49.661Z,24.10
2019-05-15T05:48:24.356Z,23.62
2019-05-15T05:48:59.220Z,31.65
2019-05-15T05:49:34.229Z,28.90
2019-05-15T05:50:10.663Z,22.07
2019-05-15T05:50:45.687Z,23.38
2019-05-15T05:51:20.447Z,25.92
2019-05-15T05:51:55.445Z,22.30
2019-05-15T05:52:30.478Z,24.65
2019-05-15T05:53:05.177Z,23.45
2019-05-15T05:53:40.243Z,25.97
2019-05-15T05:54:15.157Z,18.50
2019-05-15T05:54:50.158Z,21.02
2019-05-15T05:55:24.778Z,25.20
2019-05-15T05:55:59.947Z,26.80
2019-05-15T05:56:34.456Z,29.20
2019-05-15T05:57:09.771Z,26.33
2019-05-15T05:57:44.236Z,28.55
2019-05-15T05:58:19.792Z,25.52
2019-05-15T05:58:55.155Z,24.77
2019-05-15T05:59:30.107Z,24.67
2019-05-15T06:00:05.157Z,31.42
2019-05-15T06:00:45.031Z,33.28
2019-05-15T06:01:20.259Z,33.23
2019-05-15T06:01:55.369Z,28.05
2019-05-15T06:02:43.841Z,29.32
2019-05-15T06:03:08.687Z,35.17
2019-05-15T06:03:43.849Z,33.20
2019-05-15T06:04:18.820Z,33.13
2019-05-15T06:04:53.387Z,36.00
2019-05-15T06:05:28.335Z,30.65
2019-05-15T06:06:03.345Z,36.58
2019-05-15T06:06:38.589Z,33.58
2019-05-15T06:07:14.344Z,29.07
2019-05-15T06:07:49.619Z,25.80
2019-05-15T06:08:24.547Z,29.35
2019-05-15T06:08:59.368Z,32.50
2019-05-15T06:09:34.189Z,28.67
2019-05-15T06:10:09.449Z,29.12
2019-05-15T06:10:44.395Z,42.40
2019-05-15T06:11:19.359Z,47.05
2019-05-15T06:11:53.996Z,29.05
2019-05-15T06:12:28.940Z,28.42
2019-05-15T06:13:03.808Z,30.90
2019-05-15T06:13:38.569Z,32.45
2019-05-15T06:14:12.884Z,31.15
2019-05-15T06:14:48.482Z,29.77
2019-05-15T06:15:23.283Z,28.47
2019-05-15T06:15:59.082Z,31.75
2019-05-15T06:16:33.849Z,31.35
2019-05-15T06:17:08.895Z,31.15
2019-05-15T06:17:48.110Z,27.67
2019-05-15T06:18:23.136Z,23.50
2019-05-15T06:18:58.616Z,32.17
2019-05-15T06:19:33.733Z,24.95
2019-05-15T06:20:08.955Z,23.73
2019-05-15T06:20:44.117Z,28.57
2019-05-15T06:21:18.487Z,32.67
2019-05-15T06:21:57.425Z,31.48
2019-05-15T06:22:29.947Z,23.07
2019-05-15T06:23:04.948Z,29.57
2019-05-15T06:23:45.182Z,30.40
2019-05-15T06:24:18.063Z,38.08
2019-05-15T06:24:52.775Z,40.48
2019-05-15T06:25:30.477Z,32.13
2019-05-15T06:26:04.589Z,28.32
2019-05-15T06:26:39.180Z,26.02
2019-05-15T06:27:14.216Z,27.37
2019-05-15T06:27:49.222Z,28.00
2019-05-15T06:28:23.733Z,35.00
2019-05-15T06:28:58.708Z,30.15
2019-05-15T06:29:33.478Z,32.50
2019-05-15T06:30:14.728Z,24.52
2019-05-15T06:30:45.455Z,19.70
2019-05-15T06:31:20.674Z,24.00
2019-05-15T06:31:55.597Z,32.05
2019-05-15T06:32:30.722Z,24.80
2019-05-15T06:33:10.662Z,23.00
2019-05-15T06:33:41.587Z,20.80
2019-05-15T06:34:17.838Z,23.75
2019-05-15T06:34:53.055Z,21.68
2019-05-15T06:35:31.220Z,20.95
2019-05-15T06:36:04.841Z,18.35
2019-05-15T06:36:39.669Z,20.92
2019-05-15T06:37:14.267Z,26.42
2019-05-15T06:37:48.997Z,21.62
2019-05-15T06:38:24.058Z,27.40
2019-05-15T06:38:59.212Z,21.93
2019-05-15T06:39:34.245Z,23.38
2019-05-15T06:40:09.168Z,21.45
2019-05-15T06:40:44.071Z,24.65
2019-05-15T06:41:19.239Z,22.45
2019-05-15T06:41:54.427Z,18.27
2019-05-15T06:42:28.991Z,24.00
2019-05-15T06:43:03.848Z,28.73
2019-05-15T06:43:39.172Z,26.10
2019-05-15T06:44:13.767Z,17.55
2019-05-15T06:44:48.563Z,21.20
2019-05-15T06:45:23.952Z,19.57
2019-05-15T06:45:58.604Z,25.00
2019-05-15T06:46:33.785Z,21.60
2019-05-15T06:47:08.395Z,26.42
2019-05-15T06:47:43.442Z,25.12
2019-05-15T06:48:18.865Z,22.02
2019-05-15T06:48:53.940Z,18.55
2019-05-15T06:49:28.701Z,18.60
2019-05-15T06:50:04.030Z,15.43
2019-05-15T06:50:40.103Z,22.25
2019-05-15T06:51:15.006Z,19.20
2019-05-15T06:51:49.687Z,22.70
2019-05-15T06:52:24.804Z,20.50
2019-05-15T06:52:59.597Z,13.90
2019-05-15T06:53:34.446Z,15.75
2019-05-15T06:54:09.185Z,15.68
2019-05-15T06:54:43.962Z,16.77
2019-05-15T06:55:19.196Z,16.40
2019-05-15T06:55:54.167Z,15.25
2019-05-15T06:56:29.016Z,17.57
2019-05-15T06:57:04.068Z,18.67
2019-05-15T06:57:39.782Z,15.58
2019-05-15T06:58:14.913Z,16.12
2019-05-15T06:58:49.615Z,13.13
2019-05-15T06:59:24.559Z,13.48
2019-05-15T06:59:59.364Z,13.05
2019-05-15T07:00:34.759Z,12.63
2019-05-15T07:01:09.518Z,12.37
2019-05-15T07:01:44.352Z,14.15
2019-05-15T07:02:19.216Z,9.55
2019-05-15T07:02:54.345Z,9.53
2019-05-15T07:03:29.513Z,10.50
2019-05-15T07:04:04.705Z,11.35
2019-05-15T07:04:39.618Z,10.78
2019-05-15T07:05:14.501Z,12.15
2019-05-15T07:05:50.614Z,11.30
2019-05-15T07:06:25.918Z,11.85
2019-05-15T07:07:01.374Z,11.20
2019-05-15T07:07:38.586Z,12.65
2019-05-15T07:08:12.765Z,9.10
2019-05-15T07:08:49.684Z,9.73
2019-05-15T07:09:24.097Z,9.15
2019-05-15T07:09:59.102Z,8.65
2019-05-15T07:10:33.512Z,7.10
2019-05-15T07:11:09.062Z,10.63
2019-05-15T07:11:44.067Z,7.33
2019-05-15T07:12:18.970Z,7.03
2019-05-15T07:12:53.717Z,9.18
2019-05-15T07:13:29.221Z,7.95
2019-05-15T07:14:04.051Z,10.95
2019-05-15T07:14:39.051Z,8.75
2019-05-15T07:15:14.068Z,10.58
2019-05-15T07:15:49.865Z,6.62
2019-05-15T07:16:25.284Z,7.03
2019-05-15T07:17:00.512Z,10.25
2019-05-15T07:17:35.090Z,9.53
2019-05-15T07:18:10.124Z,9.10
2019-05-15T07:18:44.763Z,9.83
2019-05-15T07:19:19.810Z,9.48
2019-05-15T07:19:54.175Z,8.03
2019-05-15T07:20:30.190Z,11.68
2019-05-15T07:21:04.961Z,10.03
2019-05-15T07:21:39.877Z,9.28
2019-05-15T07:22:14.964Z,10.20
2019-05-15T07:22:49.701Z,8.68
2019-05-15T07:23:27.221Z,8.03
2019-05-15T07:24:01.587Z,8.73
2019-05-15T07:24:38.217Z,8.83
2019-05-15T07:25:12.944Z,8.28
2019-05-15T07:25:49.868Z,6.80
2019-05-15T07:26:24.519Z,7.30
2019-05-15T07:26:59.379Z,7.20
2019-05-15T07:27:34.555Z,9.13
2019-05-15T07:28:09.228Z,7.70
2019-05-15T07:28:44.135Z,7.37
2019-05-15T07:29:19.024Z,9.45
2019-05-15T07:29:53.678Z,8.18
2019-05-15T07:30:29.499Z,7.03
2019-05-15T07:31:04.543Z,6.75
2019-05-15T07:31:39.078Z,6.65
2019-05-15T07:32:22.166Z,7.25
2019-05-15T07:32:58.505Z,9.93
2019-05-15T07:33:39.583Z,9.00
2019-05-15T07:34:09.709Z,9.05
2019-05-15T07:34:44.567Z,9.05
2019-05-15T07:35:19.756Z,9.13
2019-05-15T07:35:54.777Z,10.03
2019-05-15T07:36:32.968Z,10.82
2019-05-15T07:37:09.712Z,7.33